Ivanhoe Post Office, Australia
Current Conditions -  °F | °C
As of 1:00 AM on Monday 26 Jan 2015 (Local Time) from YGTH Reporting Station
Clear Clear  
Wind Chill: 66°   Ceiling: Unl
Heat Index: 66°   Visibility: 6mi
Dew Point: 34°   Wind: 13mph
Humidity: 30%   Direction: 210°SSW
Pressure: 29.83"   Gusts: NA
Location:  32.9°S, 144.28°E
Report Text: YGTH 251400Z AUTO 21011KT 9999 // NCD 19/01 Q1010
Loading
Personal Weather Stations






























Interactive Weather Map New forecast layout! Learn more

10-Day Weather Forecast

Advertisements
Track Severe Weather on mobile